Ottawa Lake, MI (49267)

10:42 PM EDT on August 27, 2016 (GMT -0400)
Rural | | Change Station

Elev 650 ft 41.77 °N, 83.73 °W | Updated 58 seconds ago

Clear
Clear
71.4 °F
Feels Like 71.4 °F
N
6.8
Wind Variable Wind from South

Today
High -- | Low -- °F
--% Chance of Precip.
Yesterday
High -- | Low -- °F
Precip. -- in
Pressure 30.13 in
Visibility 7.0 miles
Clouds Clear
Dew Point 71 °F
Humidity 99%
Rainfall 1.34 in
Snow Depth Not available.
6:56 AM 8:15 PM
Waning Crescent, 19% visible
METAR KDUH 280234Z AUTO 00000KT 7SM CLR 23/22 A3013 RMK AO2 T02260215
Pressure 30.13 in
Visibility 7.0 miles
Clouds Clear
Dew Point 71 °F
Humidity 99%
Rainfall 1.34 in
Snow Depth Not available.
6:56 AM 8:15 PM
Waning Crescent, 19% visible
METAR KDUH 280234Z AUTO 00000KT 7SM CLR 23/22 A3013 RMK AO2 T02260215

10-Day Weather Forecast

Almanac

Astronomy

Aug. 27, 2016 Rise Set
Actual Time
Civil Twilight
Nautical Twilight
Astronomical Twilight
Moon
Length of Visible Light
Length of Day
Tomorrow will be .
, % of the Moon is Illuminated

Today's Extremes

State Highs State Lows

Community

WunderPhotos

Upload Photos

1,935,505 photos uploaded!

WunderBlog® & News

Nearby

Air Quality

  Air Quality AQ Index Pollutant
Not available.

Snow Depth

Station Depth Elevation

Earthquake Activity

City Distance Mag. Time & Date
Minimum magnitude displayed is 2.5.

Coastal Water Temperatures

Place Temperature

Stations

Nearby Weather Stations

Station Location Temp. Windchill Dew Point Humidity Wind Precip. Elev Updated Type
                   

Watches & Warnings

There are currently no watches in effect.